sensor_id;sensor_type;location;lat;lon;timestamp;pressure;altitude;pressure_sealevel;temperature;humidity
61676;BME280;47574;52.090;5.244;2023-02-12T00:00:32;103829.0;;;14.72;52.33
61676;BME280;47574;52.090;5.244;2023-02-12T00:03:46;103830.0;;;14.41;52.9
61676;BME280;47574;52.090;5.244;2023-02-12T00:05:24;103831.0;;;14.46;52.86
61676;BME280;47574;52.090;5.244;2023-02-12T00:07:00;103831.0;;;14.65;52.58
61676;BME280;47574;52.090;5.244;2023-02-12T00:10:14;103831.0;;;14.7;52.43
61676;BME280;47574;52.090;5.244;2023-02-12T00:11:52;103824.0;;;14.71;52.2
61676;BME280;47574;52.090;5.244;2023-02-12T00:13:29;103827.0;;;14.59;52.33
61676;BME280;47574;52.090;5.244;2023-02-12T00:15:06;103832.0;;;14.66;52.25
61676;BME280;47574;52.090;5.244;2023-02-12T00:18:20;103834.99999999999;;;14.65;52.29
61676;BME280;47574;52.090;5.244;2023-02-12T00:19:56;103833.0;;;14.64;52.51
61676;BME280;47574;52.090;5.244;2023-02-12T00:21:35;103833.99999999999;;;14.64;52.59
61676;BME280;47574;52.090;5.244;2023-02-12T00:24:47;103833.0;;;14.65;52.59
61676;BME280;47574;52.090;5.244;2023-02-12T00:26:24;103834.99999999999;;;14.56;52.58
61676;BME280;47574;52.090;5.244;2023-02-12T00:28:01;103831.0;;;14.51;52.64
61676;BME280;47574;52.090;5.244;2023-02-12T00:31:17;103829.0;;;14.63;52.36
61676;BME280;47574;52.090;5.244;2023-02-12T00:32:54;103829.0;;;14.67;52.44
61676;BME280;47574;52.090;5.244;2023-02-12T00:34:30;103825.0;;;14.68;52.5
61676;BME280;47574;52.090;5.244;2023-02-12T00:36:09;103824.0;;;14.74;52.32
61676;BME280;47574;52.090;5.244;2023-02-12T00:39:25;103822.0;;;14.72;52.29
61676;BME280;47574;52.090;5.244;2023-02-12T00:41:02;103828.0;;;14.69;52.34
61676;BME280;47574;52.090;5.244;2023-02-12T00:42:39;103823.0;;;14.72;52.27
61676;BME280;47574;52.090;5.244;2023-02-12T00:45:52;103818.0;;;14.73;52.26
61676;BME280;47574;52.090;5.244;2023-02-12T00:47:28;103820.0;;;14.69;52.28
61676;BME280;47574;52.090;5.244;2023-02-12T00:49:04;103820.0;;;14.69;52.31
61676;BME280;47574;52.090;5.244;2023-02-12T00:50:43;103824.0;;;14.67;52.41
61676;BME280;47574;52.090;5.244;2023-02-12T00:53:56;103825.0;;;14.65;52.42
61676;BME280;47574;52.090;5.244;2023-02-12T00:55:32;103823.0;;;14.67;52.39
61676;BME280;47574;52.090;5.244;2023-02-12T00:57:09;103819.0;;;14.7;52.4
61676;BME280;47574;52.090;5.244;2023-02-12T01:00:22;103822.0;;;14.66;52.5
61676;BME280;47574;52.090;5.244;2023-02-12T01:01:59;103824.0;;;14.72;52.36
61676;BME280;47574;52.090;5.244;2023-02-12T01:03:35;103824.0;;;14.73;52.34
61676;BME280;47574;52.090;5.244;2023-02-12T01:06:49;103825.0;;;14.61;52.7
61676;BME280;47574;52.090;5.244;2023-02-12T01:08:25;103827.0;;;14.75;52.36
61676;BME280;47574;52.090;5.244;2023-02-12T01:10:03;103830.0;;;14.71;52.55
61676;BME280;47574;52.090;5.244;2023-02-12T01:11:40;103829.0;;;14.66;52.5
61676;BME280;47574;52.090;5.244;2023-02-12T01:14:53;103830.0;;;14.55;52.85
61676;BME280;47574;52.090;5.244;2023-02-12T01:16:31;103829.0;;;14.68;52.55
61676;BME280;47574;52.090;5.244;2023-02-12T01:18:08;103824.0;;;14.71;52.47
61676;BME280;47574;52.090;5.244;2023-02-12T01:21:23;103823.0;;;14.69;52.35
61676;BME280;47574;52.090;5.244;2023-02-12T01:23:00;103823.0;;;14.76;52.09
61676;BME280;47574;52.090;5.244;2023-02-12T01:24:37;103821.0;;;14.72;52.14
61676;BME280;47574;52.090;5.244;2023-02-12T01:26:16;103820.0;;;14.57;52.48
61676;BME280;47574;52.090;5.244;2023-02-12T01:29:31;103822.0;;;14.63;52.35
61676;BME280;47574;52.090;5.244;2023-02-12T01:31:08;103820.0;;;14.64;52.16
61676;BME280;47574;52.090;5.244;2023-02-12T01:32:45;103816.00000000001;;;14.68;52.19
61676;BME280;47574;52.090;5.244;2023-02-12T01:35:57;103818.0;;;14.62;52.24
61676;BME280;47574;52.090;5.244;2023-02-12T01:37:34;103822.0;;;14.56;52.56
61676;BME280;47574;52.090;5.244;2023-02-12T01:39:12;103825.0;;;14.61;52.24
61676;BME280;47574;52.090;5.244;2023-02-12T01:42:26;103828.0;;;14.61;52.31
61676;BME280;47574;52.090;5.244;2023-02-12T01:44:05;103827.0;;;14.64;52.14
61676;BME280;47574;52.090;5.244;2023-02-12T01:45:49;103826.0;;;14.6;52.38
61676;BME280;47574;52.090;5.244;2023-02-12T01:47:26;103825.0;;;14.62;52.2
61676;BME280;47574;52.090;5.244;2023-02-12T01:50:46;103827.0;;;14.56;52.41
61676;BME280;47574;52.090;5.244;2023-02-12T01:52:27;103828.0;;;14.67;52.37
61676;BME280;47574;52.090;5.244;2023-02-12T01:54:07;103828.0;;;14.63;52.39
61676;BME280;47574;52.090;5.244;2023-02-12T01:55:48;103826.0;;;14.69;52.25
61676;BME280;47574;52.090;5.244;2023-02-12T02:00:41;103826.0;;;14.67;52.19
61676;BME280;47574;52.090;5.244;2023-02-12T02:02:19;103829.0;;;14.7;52.03
61676;BME280;47574;52.090;5.244;2023-02-12T02:03:59;103823.0;;;14.71;51.86
61676;BME280;47574;52.090;5.244;2023-02-12T02:07:21;103822.0;;;14.69;52.15
61676;BME280;47574;52.090;5.244;2023-02-12T02:08:58;103820.0;;;14.71;52.02
61676;BME280;47574;52.090;5.244;2023-02-12T02:10:36;103821.0;;;14.65;52.1
61676;BME280;47574;52.090;5.244;2023-02-12T02:16:17;103818.0;;;14.58;51.92
61676;BME280;47574;52.090;5.244;2023-02-12T02:18:03;103815.00000000001;;;14.67;51.93
61676;BME280;47574;52.090;5.244;2023-02-12T02:19:59;103821.0;;;14.6;52.07
61676;BME280;47574;52.090;5.244;2023-02-12T02:27:14;103818.0;;;14.6;51.93
61676;BME280;47574;52.090;5.244;2023-02-12T02:30:48;103818.0;;;14.53;52.27
61676;BME280;47574;52.090;5.244;2023-02-12T02:32:34;103819.0;;;14.63;52.01
61676;BME280;47574;52.090;5.244;2023-02-12T02:34:20;103817.0;;;14.64;52.04
61676;BME280;47574;52.090;5.244;2023-02-12T02:36:14;103817.0;;;14.61;52.11
61676;BME280;47574;52.090;5.244;2023-02-12T02:38:05;103815.00000000001;;;14.59;51.96
61676;BME280;47574;52.090;5.244;2023-02-12T02:39:49;103817.0;;;14.65;51.91
61676;BME280;47574;52.090;5.244;2023-02-12T02:43:15;103815.00000000001;;;14.58;52.13
61676;BME280;47574;52.090;5.244;2023-02-12T02:44:58;103813.00000000001;;;14.61;52.2
61676;BME280;47574;52.090;5.244;2023-02-12T02:46:41;103808.99999999999;;;14.66;52.05
61676;BME280;47574;52.090;5.244;2023-02-12T02:48:23;103808.0;;;14.47;52.31
61676;BME280;47574;52.090;5.244;2023-02-12T02:50:07;103808.99999999999;;;14.49;52.3
61676;BME280;47574;52.090;5.244;2023-02-12T02:53:32;103813.00000000001;;;14.62;52.02
61676;BME280;47574;52.090;5.244;2023-02-12T02:55:16;103804.0;;;14.64;52.06
61676;BME280;47574;52.090;5.244;2023-02-12T02:57:02;103806.0;;;14.55;52.08
61676;BME280;47574;52.090;5.244;2023-02-12T02:58:42;103806.0;;;14.56;51.86
61676;BME280;47574;52.090;5.244;2023-02-12T03:00:26;103803.0;;;14.58;51.92
61676;BME280;47574;52.090;5.244;2023-02-12T03:03:55;103803.0;;;14.61;52.0
61676;BME280;47574;52.090;5.244;2023-02-12T03:05:39;103801.0;;;14.59;52.14
61676;BME280;47574;52.090;5.244;2023-02-12T03:07:20;103804.0;;;14.57;52.11
61676;BME280;47574;52.090;5.244;2023-02-12T03:09:03;103803.0;;;14.55;52.1
61676;BME280;47574;52.090;5.244;2023-02-12T03:12:31;103797.0;;;14.57;51.95
61676;BME280;47574;52.090;5.244;2023-02-12T03:14:15;103795.0;;;14.58;51.94
61676;BME280;47574;52.090;5.244;2023-02-12T03:15:58;103792.0;;;14.67;51.49
61676;BME280;47574;52.090;5.244;2023-02-12T03:17:40;103793.0;;;14.64;51.51
61676;BME280;47574;52.090;5.244;2023-02-12T03:19:22;103794.0;;;14.59;51.73
61676;BME280;47574;52.090;5.244;2023-02-12T03:22:45;103791.00000000001;;;14.48;51.87
61676;BME280;47574;52.090;5.244;2023-02-12T03:24:30;103792.0;;;14.57;51.7
61676;BME280;47574;52.090;5.244;2023-02-12T03:26:11;103792.0;;;14.71;51.47
61676;BME280;47574;52.090;5.244;2023-02-12T03:27:57;103792.0;;;14.73;51.36
61676;BME280;47574;52.090;5.244;2023-02-12T03:29:39;103797.0;;;14.62;51.5
61676;BME280;47574;52.090;5.244;2023-02-12T03:33:15;103798.0;;;14.53;51.65
61676;BME280;47574;52.090;5.244;2023-02-12T03:36:50;103800.0;;;14.41;51.99
61676;BME280;47574;52.090;5.244;2023-02-12T03:38:34;103800.0;;;14.56;51.4
61676;BME280;47574;52.090;5.244;2023-02-12T03:40:16;103796.0;;;14.55;51.6
61676;BME280;47574;52.090;5.244;2023-02-12T03:43:47;103798.0;;;14.6;51.58
61676;BME280;47574;52.090;5.244;2023-02-12T03:45:36;103800.0;;;14.4;51.87
61676;BME280;47574;52.090;5.244;2023-02-12T03:47:20;103798.0;;;14.43;51.96
61676;BME280;47574;52.090;5.244;2023-02-12T03:49:02;103806.0;;;14.55;51.81
61676;BME280;47574;52.090;5.244;2023-02-12T03:50:46;103804.0;;;14.53;51.68
61676;BME280;47574;52.090;5.244;2023-02-12T03:54:11;103805.0;;;14.49;51.64
61676;BME280;47574;52.090;5.244;2023-02-12T03:55:53;103805.0;;;14.4;51.89
61676;BME280;47574;52.090;5.244;2023-02-12T03:57:38;103808.0;;;14.41;51.97
61676;BME280;47574;52.090;5.244;2023-02-12T03:59:16;103815.00000000001;;;14.44;51.95
61676;BME280;47574;52.090;5.244;2023-02-12T04:02:30;103814.00000000001;;;14.52;51.63
61676;BME280;47574;52.090;5.244;2023-02-12T04:04:07;103817.0;;;14.6;51.51
61676;BME280;47574;52.090;5.244;2023-02-12T04:05:46;103813.00000000001;;;14.54;51.62
61676;BME280;47574;52.090;5.244;2023-02-12T04:07:22;103814.00000000001;;;14.33;51.78
61676;BME280;47574;52.090;5.244;2023-02-12T04:10:48;103817.0;;;14.49;51.5
61676;BME280;47574;52.090;5.244;2023-02-12T04:12:42;103820.0;;;14.52;51.5
61676;BME280;47574;52.090;5.244;2023-02-12T04:14:35;103817.0;;;14.59;51.41
61676;BME280;47574;52.090;5.244;2023-02-12T04:16:21;103819.0;;;14.62;51.23
61676;BME280;47574;52.090;5.244;2023-02-12T04:18:04;103820.0;;;14.56;51.5
61676;BME280;47574;52.090;5.244;2023-02-12T04:21:43;103823.0;;;14.54;51.59
61676;BME280;47574;52.090;5.244;2023-02-12T04:23:41;103823.0;;;14.43;51.46
61676;BME280;47574;52.090;5.244;2023-02-12T04:25:32;103824.0;;;14.45;51.58
61676;BME280;47574;52.090;5.244;2023-02-12T04:27:20;103824.0;;;14.43;51.66
61676;BME280;47574;52.090;5.244;2023-02-12T04:29:13;103828.0;;;14.48;51.56
61676;BME280;47574;52.090;5.244;2023-02-12T04:30:56;103829.0;;;14.47;51.61
61676;BME280;47574;52.090;5.244;2023-02-12T04:32:39;103831.0;;;14.41;51.64
61676;BME280;47574;52.090;5.244;2023-02-12T04:36:12;103832.0;;;14.25;51.78
61676;BME280;47574;52.090;5.244;2023-02-12T04:37:54;103834.99999999999;;;14.27;51.77
61676;BME280;47574;52.090;5.244;2023-02-12T04:39:39;103838.00000000001;;;14.43;51.6
61676;BME280;47574;52.090;5.244;2023-02-12T04:41:16;103841.00000000001;;;14.47;51.14
61676;BME280;47574;52.090;5.244;2023-02-12T04:42:53;103840.00000000001;;;14.42;51.32
61676;BME280;47574;52.090;5.244;2023-02-12T04:46:09;103834.99999999999;;;14.38;51.29
61676;BME280;47574;52.090;5.244;2023-02-12T04:47:47;103832.0;;;14.31;51.67
61676;BME280;47574;52.090;5.244;2023-02-12T04:49:23;103836.99999999999;;;14.41;51.27
61676;BME280;47574;52.090;5.244;2023-02-12T04:52:37;103838.00000000001;;;14.33;51.24
61676;BME280;47574;52.090;5.244;2023-02-12T04:54:16;103846.0;;;14.14;51.81
61676;BME280;47574;52.090;5.244;2023-02-12T04:55:54;103841.00000000001;;;14.4;51.03
61676;BME280;47574;52.090;5.244;2023-02-12T04:57:30;103840.00000000001;;;14.29;51.19
61676;BME280;47574;52.090;5.244;2023-02-12T05:00:45;103836.99999999999;;;14.38;51.06
61676;BME280;47574;52.090;5.244;2023-02-12T05:02:21;103846.0;;;14.14;51.09
61676;BME280;47574;52.090;5.244;2023-02-12T05:03:58;103841.00000000001;;;14.28;51.15
61676;BME280;47574;52.090;5.244;2023-02-12T05:07:11;103841.00000000001;;;14.41;50.97
61676;BME280;47574;52.090;5.244;2023-02-12T05:08:47;103841.00000000001;;;14.3;50.85
61676;BME280;47574;52.090;5.244;2023-02-12T05:10:23;103838.00000000001;;;14.24;51.14
61676;BME280;47574;52.090;5.244;2023-02-12T05:13:37;103838.00000000001;;;14.32;50.65
61676;BME280;47574;52.090;5.244;2023-02-12T05:15:14;103841.00000000001;;;14.33;50.93
61676;BME280;47574;52.090;5.244;2023-02-12T05:16:51;103842.0;;;14.42;50.79
61676;BME280;47574;52.090;5.244;2023-02-12T05:18:29;103842.0;;;14.56;50.47
61676;BME280;47574;52.090;5.244;2023-02-12T05:21:43;103842.0;;;14.31;50.74
61676;BME280;47574;52.090;5.244;2023-02-12T05:23:20;103843.0;;;14.42;50.72
61676;BME280;47574;52.090;5.244;2023-02-12T05:24:56;103843.0;;;14.33;50.84
61676;BME280;47574;52.090;5.244;2023-02-12T05:28:09;103846.0;;;14.48;50.52
61676;BME280;47574;52.090;5.244;2023-02-12T05:29:45;103842.0;;;14.38;50.7
61676;BME280;47574;52.090;5.244;2023-02-12T05:31:21;103848.0;;;14.42;50.62
61676;BME280;47574;52.090;5.244;2023-02-12T05:34:35;103843.0;;;14.44;50.31
61676;BME280;47574;52.090;5.244;2023-02-12T05:36:14;103842.0;;;14.36;50.36
61676;BME280;47574;52.090;5.244;2023-02-12T05:37:52;103845.0;;;14.5;50.45
61676;BME280;47574;52.090;5.244;2023-02-12T05:39:28;103845.0;;;14.58;50.18
61676;BME280;47574;52.090;5.244;2023-02-12T05:42:43;103845.0;;;14.47;50.28
61676;BME280;47574;52.090;5.244;2023-02-12T05:44:19;103849.0;;;14.5;50.18
61676;BME280;47574;52.090;5.244;2023-02-12T05:45:58;103851.0;;;14.54;50.05
61676;BME280;47574;52.090;5.244;2023-02-12T05:50:48;103850.0;;;14.54;50.06
61676;BME280;47574;52.090;5.244;2023-02-12T05:52:24;103849.0;;;14.55;50.2
61676;BME280;47574;52.090;5.244;2023-02-12T05:54:04;103852.0;;;14.57;50.13
61676;BME280;47574;52.090;5.244;2023-02-12T05:57:17;103850.0;;;14.48;50.4
61676;BME280;47574;52.090;5.244;2023-02-12T05:58:55;103856.0;;;14.55;50.2
61676;BME280;47574;52.090;5.244;2023-02-12T06:00:33;103858.0;;;14.57;50.18
61676;BME280;47574;52.090;5.244;2023-02-12T06:03:46;103853.0;;;14.45;50.57
61676;BME280;47574;52.090;5.244;2023-02-12T06:05:23;103848.0;;;14.43;50.58
61676;BME280;47574;52.090;5.244;2023-02-12T06:06:59;103849.0;;;14.51;50.33
61676;BME280;47574;52.090;5.244;2023-02-12T06:10:13;103847.0;;;14.45;50.55
61676;BME280;47574;52.090;5.244;2023-02-12T06:11:49;103854.0;;;14.44;50.66
61676;BME280;47574;52.090;5.244;2023-02-12T06:13:26;103858.0;;;14.45;50.68
61676;BME280;47574;52.090;5.244;2023-02-12T06:15:04;103851.0;;;14.37;50.86
61676;BME280;47574;52.090;5.244;2023-02-12T06:18:20;103850.0;;;14.37;50.47
61676;BME280;47574;52.090;5.244;2023-02-12T06:19:57;103857.0;;;14.26;50.48
61676;BME280;47574;52.090;5.244;2023-02-12T06:21:33;103849.0;;;14.45;50.22
61676;BME280;47574;52.090;5.244;2023-02-12T06:24:46;103847.0;;;14.52;50.21
61676;BME280;47574;52.090;5.244;2023-02-12T06:26:23;103851.0;;;14.53;50.33
61676;BME280;47574;52.090;5.244;2023-02-12T06:28:00;103848.0;;;14.49;50.32
61676;BME280;47574;52.090;5.244;2023-02-12T06:29:37;103850.0;;;14.49;50.34
61676;BME280;47574;52.090;5.244;2023-02-12T06:32:55;103853.0;;;14.52;50.14
61676;BME280;47574;52.090;5.244;2023-02-12T06:34:32;103852.0;;;14.37;50.32
61676;BME280;47574;52.090;5.244;2023-02-12T06:36:09;103850.0;;;14.49;50.2
61676;BME280;47574;52.090;5.244;2023-02-12T06:39:22;103850.0;;;14.45;50.3
61676;BME280;47574;52.090;5.244;2023-02-12T06:41:00;103849.0;;;14.55;50.01
61676;BME280;47574;52.090;5.244;2023-02-12T06:42:37;103851.0;;;14.44;50.26
61676;BME280;47574;52.090;5.244;2023-02-12T06:44:13;103850.0;;;14.46;50.33
61676;BME280;47574;52.090;5.244;2023-02-12T06:47:26;103854.0;;;14.5;50.23
61676;BME280;47574;52.090;5.244;2023-02-12T06:49:02;103853.0;;;14.35;50.24
61676;BME280;47574;52.090;5.244;2023-02-12T06:50:39;103851.0;;;14.38;50.45
61676;BME280;47574;52.090;5.244;2023-02-12T06:53:53;103856.0;;;14.45;50.24
61676;BME280;47574;52.090;5.244;2023-02-12T06:55:30;103857.0;;;14.43;50.52
61676;BME280;47574;52.090;5.244;2023-02-12T06:57:06;103854.0;;;14.48;50.22
61676;BME280;47574;52.090;5.244;2023-02-12T07:00:22;103856.0;;;14.36;50.48
61676;BME280;47574;52.090;5.244;2023-02-12T07:01:58;103859.99999999999;;;14.45;50.32
61676;BME280;47574;52.090;5.244;2023-02-12T07:03:35;103866.00000000001;;;14.33;50.45
61676;BME280;47574;52.090;5.244;2023-02-12T07:05:11;103869.0;;;14.42;50.49
61676;BME280;47574;52.090;5.244;2023-02-12T07:08:24;103873.0;;;14.47;50.44
61676;BME280;47574;52.090;5.244;2023-02-12T07:10:00;103872.0;;;14.5;50.27
61676;BME280;47574;52.090;5.244;2023-02-12T07:11:37;103882.0;;;14.43;50.42
61676;BME280;47574;52.090;5.244;2023-02-12T07:14:50;103883.99999999999;;;14.44;50.3
61676;BME280;47574;52.090;5.244;2023-02-12T07:16:28;103884.99999999999;;;14.38;50.3
61676;BME280;47574;52.090;5.244;2023-02-12T07:18:05;103888.00000000001;;;14.4;50.28
61676;BME280;47574;52.090;5.244;2023-02-12T07:21:17;103892.0;;;14.44;50.35
61676;BME280;47574;52.090;5.244;2023-02-12T07:22:55;103890.00000000001;;;14.53;50.02
61676;BME280;47574;52.090;5.244;2023-02-12T07:24:31;103894.0;;;14.48;50.19
61676;BME280;47574;52.090;5.244;2023-02-12T07:26:10;103894.0;;;14.43;50.41
61676;BME280;47574;52.090;5.244;2023-02-12T07:29:24;103893.0;;;14.47;50.33
61676;BME280;47574;52.090;5.244;2023-02-12T07:31:05;103895.0;;;14.43;50.53
61676;BME280;47574;52.090;5.244;2023-02-12T07:32:43;103898.0;;;14.46;50.39
61676;BME280;47574;52.090;5.244;2023-02-12T07:35:58;103901.0;;;14.44;50.15
61676;BME280;47574;52.090;5.244;2023-02-12T07:37:35;103904.0;;;14.46;49.85
61676;BME280;47574;52.090;5.244;2023-02-12T07:39:12;103901.0;;;14.23;50.25
61676;BME280;47574;52.090;5.244;2023-02-12T07:40:48;103900.0;;;14.06;51.0
61676;BME280;47574;52.090;5.244;2023-02-12T07:44:04;103902.0;;;14.3;50.34
61676;BME280;47574;52.090;5.244;2023-02-12T07:45:42;103905.0;;;14.32;50.31
61676;BME280;47574;52.090;5.244;2023-02-12T07:47:18;103908.0;;;14.33;50.6
61676;BME280;47574;52.090;5.244;2023-02-12T07:50:33;103909.99999999999;;;14.38;50.46
61676;BME280;47574;52.090;5.244;2023-02-12T07:52:11;103915.00000000001;;;14.45;50.32
61676;BME280;47574;52.090;5.244;2023-02-12T07:53:48;103920.0;;;14.48;50.18
61676;BME280;47574;52.090;5.244;2023-02-12T07:55:26;103919.0;;;14.33;50.37
61676;BME280;47574;52.090;5.244;2023-02-12T07:58:40;103922.0;;;14.41;50.37
61676;BME280;47574;52.090;5.244;2023-02-12T08:00:18;103922.0;;;14.38;50.27
61676;BME280;47574;52.090;5.244;2023-02-12T08:01:55;103922.0;;;14.33;50.37
61676;BME280;47574;52.090;5.244;2023-02-12T08:05:08;103921.0;;;14.39;50.01
61676;BME280;47574;52.090;5.244;2023-02-12T08:06:47;103925.0;;;14.19;50.41
61676;BME280;47574;52.090;5.244;2023-02-12T08:08:24;103925.0;;;14.39;50.06
61676;BME280;47574;52.090;5.244;2023-02-12T08:10:00;103926.0;;;14.48;50.02
61676;BME280;47574;52.090;5.244;2023-02-12T08:13:16;103923.0;;;14.36;50.22
61676;BME280;47574;52.090;5.244;2023-02-12T08:14:53;103928.0;;;14.29;50.34
61676;BME280;47574;52.090;5.244;2023-02-12T08:16:30;103923.0;;;14.18;50.28
61676;BME280;47574;52.090;5.244;2023-02-12T08:19:47;103929.0;;;14.24;50.32
61676;BME280;47574;52.090;5.244;2023-02-12T08:21:25;103932.0;;;14.36;50.32
61676;BME280;47574;52.090;5.244;2023-02-12T08:23:03;103940.00000000001;;;14.46;50.37
61676;BME280;47574;52.090;5.244;2023-02-12T08:24:39;103933.0;;;14.44;50.08
61676;BME280;47574;52.090;5.244;2023-02-12T08:27:54;103939.00000000001;;;14.46;50.06
61676;BME280;47574;52.090;5.244;2023-02-12T08:29:30;103940.00000000001;;;14.36;50.58
61676;BME280;47574;52.090;5.244;2023-02-12T08:31:09;103946.0;;;14.45;50.48
61676;BME280;47574;52.090;5.244;2023-02-12T08:34:28;103952.0;;;14.43;50.5
61676;BME280;47574;52.090;5.244;2023-02-12T08:36:08;103952.0;;;14.51;50.33
61676;BME280;47574;52.090;5.244;2023-02-12T08:37:45;103951.0;;;14.49;50.12
61676;BME280;47574;52.090;5.244;2023-02-12T08:39:22;103952.0;;;14.49;49.95
61676;BME280;47574;52.090;5.244;2023-02-12T08:42:37;103953.0;;;14.48;49.89
61676;BME280;47574;52.090;5.244;2023-02-12T08:44:14;103957.0;;;14.39;49.82
61676;BME280;47574;52.090;5.244;2023-02-12T08:45:51;103961.99999999999;;;14.51;49.66
61676;BME280;47574;52.090;5.244;2023-02-12T08:49:06;103958.0;;;14.48;49.81
61676;BME280;47574;52.090;5.244;2023-02-12T08:50:44;103954.0;;;14.46;50.01
61676;BME280;47574;52.090;5.244;2023-02-12T08:52:21;103959.99999999999;;;14.4;49.93
61676;BME280;47574;52.090;5.244;2023-02-12T08:53:59;103961.99999999999;;;14.47;49.37
61676;BME280;47574;52.090;5.244;2023-02-12T08:57:13;103965.00000000001;;;14.49;49.67
61676;BME280;47574;52.090;5.244;2023-02-12T08:58:49;103966.00000000001;;;14.44;49.61
61676;BME280;47574;52.090;5.244;2023-02-12T09:00:26;103966.00000000001;;;14.47;49.76
61676;BME280;47574;52.090;5.244;2023-02-12T09:03:41;103964.00000000001;;;14.52;49.73
61676;BME280;47574;52.090;5.244;2023-02-12T09:05:17;103963.00000000001;;;14.54;49.44
61676;BME280;47574;52.090;5.244;2023-02-12T09:06:54;103959.99999999999;;;14.48;49.63
61676;BME280;47574;52.090;5.244;2023-02-12T09:10:09;103967.0;;;14.58;49.46
61676;BME280;47574;52.090;5.244;2023-02-12T09:11:46;103970.0;;;14.54;49.74
61676;BME280;47574;52.090;5.244;2023-02-12T09:13:23;103966.00000000001;;;14.59;49.48
61676;BME280;47574;52.090;5.244;2023-02-12T09:15:00;103969.0;;;14.57;49.49
61676;BME280;47574;52.090;5.244;2023-02-12T09:18:15;103971.0;;;14.68;49.18
61676;BME280;47574;52.090;5.244;2023-02-12T09:19:53;103972.0;;;14.6;49.29
61676;BME280;47574;52.090;5.244;2023-02-12T09:21:30;103972.0;;;14.64;49.24
61676;BME280;47574;52.090;5.244;2023-02-12T09:24:46;103972.0;;;14.59;49.45
61676;BME280;47574;52.090;5.244;2023-02-12T09:26:25;103970.0;;;14.69;48.96
61676;BME280;47574;52.090;5.244;2023-02-12T09:28:02;103970.0;;;14.59;49.3
61676;BME280;47574;52.090;5.244;2023-02-12T09:29:38;103970.0;;;14.69;49.22
61676;BME280;47574;52.090;5.244;2023-02-12T09:32:55;103972.0;;;14.63;49.25
61676;BME280;47574;52.090;5.244;2023-02-12T09:34:33;103967.0;;;14.92;48.46
61676;BME280;47574;52.090;5.244;2023-02-12T09:36:12;103973.0;;;14.78;49.04
61676;BME280;47574;52.090;5.244;2023-02-12T09:39:29;103970.0;;;14.68;49.33
61676;BME280;47574;52.090;5.244;2023-02-12T09:41:23;103974.0;;;14.64;49.49
61676;BME280;47574;52.090;5.244;2023-02-12T09:43:10;103967.0;;;14.69;49.77
61676;BME280;47574;52.090;5.244;2023-02-12T09:44:57;103968.0;;;14.77;49.41
61676;BME280;47574;52.090;5.244;2023-02-12T09:46:43;103968.0;;;14.84;49.18
61676;BME280;47574;52.090;5.244;2023-02-12T09:48:40;103971.0;;;14.89;49.08
61676;BME280;47574;52.090;5.244;2023-02-12T09:52:25;103973.0;;;14.82;49.45
61676;BME280;47574;52.090;5.244;2023-02-12T09:54:05;103967.0;;;14.93;49.29
61676;BME280;47574;52.090;5.244;2023-02-12T09:55:46;103969.0;;;14.78;49.52
61676;BME280;47574;52.090;5.244;2023-02-12T09:57:26;103972.0;;;14.88;49.32
61676;BME280;47574;52.090;5.244;2023-02-12T09:59:06;103974.0;;;14.82;49.37
61676;BME280;47574;52.090;5.244;2023-02-12T10:02:21;103978.0;;;14.84;49.25
61676;BME280;47574;52.090;5.244;2023-02-12T10:04:00;103976.0;;;14.91;48.94
61676;BME280;47574;52.090;5.244;2023-02-12T10:05:40;103977.0;;;14.92;48.71
61676;BME280;47574;52.090;5.244;2023-02-12T10:07:25;103974.0;;;14.81;48.97
61676;BME280;47574;52.090;5.244;2023-02-12T10:11:27;103972.0;;;14.9;48.64
61676;BME280;47574;52.090;5.244;2023-02-12T10:13:23;103966.00000000001;;;15.05;48.05
61676;BME280;47574;52.090;5.244;2023-02-12T10:15:17;103965.00000000001;;;15.1;48.2
61676;BME280;47574;52.090;5.244;2023-02-12T10:17:07;103963.00000000001;;;14.99;48.37
61676;BME280;47574;52.090;5.244;2023-02-12T10:18:57;103973.0;;;14.8;48.74
61676;BME280;47574;52.090;5.244;2023-02-12T10:20:51;103972.0;;;14.82;48.67
61676;BME280;47574;52.090;5.244;2023-02-12T10:22:56;103974.0;;;14.86;48.75
61676;BME280;47574;52.090;5.244;2023-02-12T10:24:47;103969.0;;;14.87;48.84
61676;BME280;47574;52.090;5.244;2023-02-12T10:26:36;103969.0;;;14.89;49.01
61676;BME280;47574;52.090;5.244;2023-02-12T10:28:16;103974.0;;;14.8;48.88
61676;BME280;47574;52.090;5.244;2023-02-12T10:31:35;103973.0;;;14.91;48.65
61676;BME280;47574;52.090;5.244;2023-02-12T10:33:16;103977.0;;;14.81;48.75
61676;BME280;47574;52.090;5.244;2023-02-12T10:34:56;103972.0;;;14.98;48.29
61676;BME280;47574;52.090;5.244;2023-02-12T10:36:38;103974.0;;;14.87;48.47
61676;BME280;47574;52.090;5.244;2023-02-12T10:40:00;103971.0;;;14.86;48.3
61676;BME280;47574;52.090;5.244;2023-02-12T10:41:42;103975.0;;;14.91;48.38
61676;BME280;47574;52.090;5.244;2023-02-12T10:43:22;103977.0;;;14.89;48.73
61676;BME280;47574;52.090;5.244;2023-02-12T10:44:59;103974.0;;;14.98;48.71
61676;BME280;47574;52.090;5.244;2023-02-12T10:48:16;103969.0;;;15.02;48.09
61676;BME280;47574;52.090;5.244;2023-02-12T10:49:57;103973.0;;;14.95;48.17
61676;BME280;47574;52.090;5.244;2023-02-12T10:51:43;103965.00000000001;;;14.94;48.32
61676;BME280;47574;52.090;5.244;2023-02-12T10:53:29;103971.0;;;14.88;48.3
61676;BME280;47574;52.090;5.244;2023-02-12T10:57:07;103976.0;;;14.84;48.57
61676;BME280;47574;52.090;5.244;2023-02-12T10:58:53;103969.0;;;15.0;48.52
61676;BME280;47574;52.090;5.244;2023-02-12T11:00:32;103961.99999999999;;;14.93;48.62
61676;BME280;47574;52.090;5.244;2023-02-12T11:02:30;103963.00000000001;;;14.98;48.81
61676;BME280;47574;52.090;5.244;2023-02-12T11:04:19;103967.0;;;14.82;48.51